createdAt,value
2022-08-26T00:00:26.404Z,100.00
2022-08-26T00:02:53.041Z,100.00
2022-08-26T00:05:19.270Z,100.00
2022-08-26T00:07:45.444Z,100.00
2022-08-26T00:10:11.618Z,100.00
2022-08-26T00:12:37.909Z,100.00
2022-08-26T00:15:04.161Z,100.00
2022-08-26T00:17:30.335Z,100.00
2022-08-26T00:19:56.510Z,100.00
2022-08-26T00:22:22.662Z,100.00
2022-08-26T00:24:49.006Z,100.00
2022-08-26T00:27:15.158Z,100.00
2022-08-26T00:29:41.908Z,100.00
2022-08-26T00:32:10.057Z,100.00
2022-08-26T00:34:37.677Z,100.00
2022-08-26T00:37:03.830Z,100.00
2022-08-26T00:39:35.271Z,100.00
2022-08-26T00:42:01.459Z,100.00
2022-08-26T00:44:28.421Z,100.00
2022-08-26T00:46:54.577Z,100.00
2022-08-26T00:49:20.784Z,100.00
2022-08-26T00:51:46.942Z,100.00
2022-08-26T00:54:13.092Z,100.00
2022-08-26T00:56:39.251Z,100.00
2022-08-26T00:59:05.401Z,100.00
2022-08-26T01:01:31.631Z,100.00
2022-08-26T01:03:57.867Z,100.00
2022-08-26T01:06:24.010Z,100.00
2022-08-26T01:08:50.151Z,100.00
2022-08-26T01:11:16.356Z,100.00
2022-08-26T01:13:42.747Z,100.00
2022-08-26T01:16:08.961Z,100.00
2022-08-26T01:18:36.732Z,100.00
2022-08-26T01:21:03.295Z,100.00
2022-08-26T01:23:29.445Z,100.00
2022-08-26T01:25:55.595Z,100.00
2022-08-26T01:28:22.003Z,100.00
2022-08-26T01:30:48.183Z,100.00
2022-08-26T01:33:14.347Z,100.00
2022-08-26T01:35:40.520Z,100.00
2022-08-26T01:38:06.700Z,100.00
2022-08-26T01:40:33.285Z,100.00
2022-08-26T01:42:59.509Z,100.00
2022-08-26T01:45:25.734Z,100.00
2022-08-26T01:47:56.999Z,100.00
2022-08-26T01:50:27.873Z,100.00
2022-08-26T01:52:56.552Z,100.00
2022-08-26T01:55:32.203Z,100.00
2022-08-26T01:57:58.794Z,100.00
2022-08-26T02:00:24.957Z,100.00
2022-08-26T02:02:53.415Z,100.00
2022-08-26T02:05:19.590Z,100.00
2022-08-26T02:07:45.741Z,100.00
2022-08-26T02:10:12.114Z,100.00
2022-08-26T02:12:38.297Z,100.00
2022-08-26T02:15:05.707Z,100.00
2022-08-26T02:17:32.070Z,100.00
2022-08-26T02:20:00.193Z,100.00
2022-08-26T02:22:26.389Z,100.00
2022-08-26T02:24:52.588Z,100.00
2022-08-26T02:27:18.764Z,100.00
2022-08-26T02:29:44.929Z,100.00
2022-08-26T02:32:11.097Z,100.00
2022-08-26T02:34:40.683Z,100.00
2022-08-26T02:37:07.768Z,100.00
2022-08-26T02:39:33.996Z,100.00
2022-08-26T02:42:00.172Z,100.00
2022-08-26T02:44:26.348Z,100.00
2022-08-26T02:46:52.538Z,100.00
2022-08-26T02:49:20.375Z,100.00
2022-08-26T02:51:46.537Z,100.00
2022-08-26T02:54:12.720Z,100.00
2022-08-26T02:56:38.901Z,100.00
2022-08-26T02:59:05.396Z,100.00
2022-08-26T03:01:31.668Z,100.00
2022-08-26T03:03:57.923Z,100.00
2022-08-26T03:06:24.076Z,100.00
2022-08-26T03:08:50.298Z,100.00
2022-08-26T03:11:16.454Z,100.00
2022-08-26T03:13:42.594Z,100.00
2022-08-26T03:16:08.865Z,100.00
2022-08-26T03:18:35.559Z,100.00
2022-08-26T03:21:01.704Z,100.00
2022-08-26T03:23:27.913Z,100.00
2022-08-26T03:25:54.839Z,100.00
2022-08-26T03:28:22.231Z,100.00
2022-08-26T03:30:48.396Z,100.00
2022-08-26T03:33:15.080Z,100.00
2022-08-26T03:35:41.243Z,100.00
2022-08-26T03:38:07.438Z,100.00
2022-08-26T03:40:33.943Z,100.00
2022-08-26T03:43:00.198Z,100.00
2022-08-26T03:45:28.256Z,100.00
2022-08-26T03:47:54.433Z,100.00
2022-08-26T03:50:24.374Z,100.00
2022-08-26T03:52:50.605Z,100.00
2022-08-26T03:55:16.780Z,100.00
2022-08-26T03:57:43.873Z,100.00
2022-08-26T04:00:10.274Z,100.00
2022-08-26T04:02:36.496Z,100.00
2022-08-26T04:05:02.693Z,100.00
2022-08-26T04:07:29.751Z,100.00
2022-08-26T04:09:58.277Z,100.00
2022-08-26T04:12:24.434Z,100.00
2022-08-26T04:14:50.710Z,100.00
2022-08-26T04:17:19.949Z,100.00
2022-08-26T04:19:51.198Z,100.00
2022-08-26T04:22:24.013Z,100.00
2022-08-26T04:24:51.207Z,100.00
2022-08-26T04:27:17.791Z,100.00
2022-08-26T04:29:43.945Z,100.00
2022-08-26T04:32:10.276Z,100.00
2022-08-26T04:34:36.452Z,100.00
2022-08-26T04:37:02.624Z,100.00
2022-08-26T04:39:28.791Z,100.00
2022-08-26T04:41:54.965Z,100.00
2022-08-26T04:44:21.134Z,100.00
2022-08-26T04:46:47.778Z,100.00
2022-08-26T04:49:15.204Z,100.00
2022-08-26T04:51:41.381Z,100.00
2022-08-26T04:54:10.133Z,100.00
2022-08-26T04:56:37.571Z,100.00
2022-08-26T04:59:03.743Z,100.00
2022-08-26T05:01:33.646Z,100.00
2022-08-26T05:04:08.067Z,100.00
2022-08-26T05:06:36.940Z,100.00
2022-08-26T05:09:03.438Z,100.00
2022-08-26T05:11:29.594Z,100.00
2022-08-26T05:13:58.161Z,100.00
2022-08-26T05:16:27.932Z,100.00
2022-08-26T05:18:54.324Z,100.00
2022-08-26T05:21:20.513Z,100.00
2022-08-26T05:23:46.672Z,100.00
2022-08-26T05:26:15.643Z,100.00
2022-08-26T05:28:42.715Z,100.00
2022-08-26T05:31:08.931Z,100.00
2022-08-26T05:33:35.115Z,100.00
2022-08-26T05:36:01.312Z,100.00
2022-08-26T05:38:30.492Z,100.00
2022-08-26T05:40:56.760Z,100.00
2022-08-26T05:43:22.941Z,100.00
2022-08-26T05:45:49.103Z,100.00
2022-08-26T05:48:16.122Z,100.00
2022-08-26T05:50:42.408Z,100.00
2022-08-26T05:53:09.345Z,100.00
2022-08-26T05:55:35.737Z,100.00
2022-08-26T05:58:02.756Z,100.00
2022-08-26T06:00:29.022Z,100.00
2022-08-26T06:02:55.285Z,100.00
2022-08-26T06:05:21.459Z,100.00
2022-08-26T06:07:48.215Z,100.00
2022-08-26T06:10:31.424Z,100.00
2022-08-26T06:12:58.095Z,100.00
2022-08-26T06:15:24.333Z,100.00
2022-08-26T06:17:50.493Z,100.00
2022-08-26T06:20:16.652Z,100.00
2022-08-26T06:22:43.526Z,100.00
2022-08-26T06:25:09.896Z,100.00
2022-08-26T06:27:36.246Z,100.00
2022-08-26T06:30:02.630Z,100.00
2022-08-26T06:32:28.885Z,100.00
2022-08-26T06:34:55.582Z,100.00
2022-08-26T06:37:21.936Z,97.91
2022-08-26T06:39:48.239Z,91.39
2022-08-26T06:42:17.413Z,88.69
2022-08-26T06:44:44.687Z,89.18
2022-08-26T06:47:11.064Z,82.08
2022-08-26T06:49:37.225Z,84.06
2022-08-26T06:52:03.420Z,80.70
2022-08-26T06:54:29.615Z,78.12
2022-08-26T06:56:55.805Z,79.96
2022-08-26T06:59:22.342Z,77.78
2022-08-26T07:01:48.571Z,78.04
2022-08-26T07:04:16.038Z,75.76
2022-08-26T07:06:48.031Z,73.11
2022-08-26T07:09:14.400Z,73.10
2022-08-26T07:11:43.571Z,72.04
2022-08-26T07:14:09.778Z,73.39
2022-08-26T07:16:35.990Z,72.10
2022-08-26T07:19:03.353Z,73.26
2022-08-26T07:21:36.715Z,69.06
2022-08-26T07:24:02.926Z,69.57
2022-08-26T07:28:56.221Z,68.76
2022-08-26T07:31:22.512Z,71.08
2022-08-26T07:33:48.749Z,71.84
2022-08-26T07:36:14.974Z,71.91
2022-08-26T07:38:41.133Z,72.25
2022-08-26T07:41:08.160Z,75.67
2022-08-26T07:43:34.517Z,74.75
2022-08-26T07:46:00.830Z,75.45
2022-08-26T07:48:27.028Z,73.19
2022-08-26T07:50:53.192Z,75.03
2022-08-26T07:53:19.471Z,73.43
2022-08-26T07:55:45.674Z,75.65
2022-08-26T07:58:11.957Z,74.78
2022-08-26T08:00:38.116Z,75.88
2022-08-26T08:03:04.311Z,76.78
2022-08-26T08:05:33.315Z,78.24
2022-08-26T08:08:00.846Z,77.59
2022-08-26T08:10:48.792Z,77.14
2022-08-26T08:13:15.156Z,79.08
2022-08-26T08:15:41.367Z,77.29
2022-08-26T08:18:15.662Z,80.15
2022-08-26T08:20:44.690Z,76.63
2022-08-26T08:23:13.764Z,72.71
2022-08-26T08:25:40.565Z,74.65
2022-08-26T08:28:06.898Z,67.91
2022-08-26T08:30:34.970Z,67.95
2022-08-26T08:33:01.300Z,67.96
2022-08-26T08:35:28.056Z,68.75
2022-08-26T08:37:56.160Z,66.77
2022-08-26T08:40:23.106Z,69.29
2022-08-26T08:45:22.169Z,67.36
2022-08-26T08:47:48.619Z,70.12
2022-08-26T08:50:14.809Z,70.39
2022-08-26T08:52:41.034Z,72.19
2022-08-26T08:55:10.966Z,70.22
2022-08-26T08:57:38.878Z,68.69
2022-08-26T09:00:05.307Z,67.18
2022-08-26T09:02:31.496Z,67.30
2022-08-26T09:04:57.699Z,67.51
2022-08-26T09:07:24.554Z,67.59
2022-08-26T09:09:50.804Z,67.74
2022-08-26T09:12:17.140Z,67.54
2022-08-26T09:14:46.085Z,66.98
2022-08-26T09:17:12.340Z,66.26
2022-08-26T09:19:38.544Z,66.50
2022-08-26T09:22:08.820Z,68.12
2022-08-26T09:24:40.894Z,63.93
2022-08-26T09:27:08.396Z,62.44
2022-08-26T09:29:37.720Z,62.89
2022-08-26T09:32:03.893Z,62.77
2022-08-26T09:34:30.077Z,65.17
2022-08-26T09:36:56.261Z,62.31
2022-08-26T09:39:22.423Z,63.41
2022-08-26T09:41:48.618Z,62.47
2022-08-26T09:44:15.595Z,62.79
2022-08-26T09:46:41.914Z,61.16
2022-08-26T09:49:08.425Z,60.65
2022-08-26T09:51:34.620Z,63.45
2022-08-26T09:54:00.849Z,61.03
2022-08-26T09:56:27.540Z,59.82
2022-08-26T09:58:53.970Z,57.95
2022-08-26T10:01:20.203Z,59.54
2022-08-26T10:03:47.100Z,58.16
2022-08-26T10:06:15.184Z,58.65
2022-08-26T10:08:41.958Z,56.61
2022-08-26T10:11:10.332Z,56.76
2022-08-26T10:13:36.502Z,54.64
2022-08-26T10:16:02.650Z,55.38
2022-08-26T10:18:34.369Z,54.36
2022-08-26T10:21:00.976Z,53.43
2022-08-26T10:23:27.659Z,52.69
2022-08-26T10:25:53.878Z,54.30
2022-08-26T10:28:23.172Z,53.45
2022-08-26T10:30:49.326Z,51.39
2022-08-26T10:33:17.968Z,50.39
2022-08-26T10:35:44.430Z,48.57
2022-08-26T10:38:10.842Z,48.13
2022-08-26T10:40:37.250Z,48.09
2022-08-26T10:43:07.211Z,45.30
2022-08-26T10:45:36.283Z,47.16
2022-08-26T10:48:02.527Z,46.07
2022-08-26T10:50:28.718Z,46.89
2022-08-26T10:52:54.879Z,43.81
2022-08-26T10:55:21.073Z,45.43
2022-08-26T10:57:47.233Z,47.27
2022-08-26T11:00:13.476Z,44.61
2022-08-26T11:02:41.224Z,45.39
2022-08-26T11:05:13.412Z,47.79
2022-08-26T11:07:39.559Z,44.78
2022-08-26T11:10:05.801Z,46.94
2022-08-26T11:12:32.763Z,44.76
2022-08-26T11:14:59.405Z,45.27
2022-08-26T11:17:25.596Z,42.74
2022-08-26T11:20:01.431Z,43.40
2022-08-26T11:22:28.910Z,42.41
2022-08-26T11:24:55.066Z,42.17
2022-08-26T11:27:21.293Z,42.44
2022-08-26T11:29:47.462Z,44.70
2022-08-26T11:32:13.901Z,41.80
2022-08-26T11:34:40.084Z,40.95
2022-08-26T11:37:06.247Z,40.62
2022-08-26T11:39:36.544Z,42.38
2022-08-26T11:42:03.179Z,42.23
2022-08-26T11:44:29.345Z,38.81
2022-08-26T11:46:55.580Z,41.20
2022-08-26T11:49:21.808Z,41.79
2022-08-26T11:51:48.385Z,39.88
2022-08-26T11:54:14.624Z,40.82
2022-08-26T11:56:42.183Z,42.97
2022-08-26T11:59:08.389Z,41.23
2022-08-26T12:01:34.731Z,40.75
2022-08-26T12:04:01.101Z,39.64
2022-08-26T12:08:53.553Z,39.02
2022-08-26T12:11:19.731Z,38.30
2022-08-26T12:13:45.907Z,40.61
2022-08-26T12:16:13.216Z,40.11
2022-08-26T12:18:40.003Z,38.64
2022-08-26T12:21:06.192Z,39.27
2022-08-26T12:23:32.366Z,37.48
2022-08-26T12:25:58.563Z,37.02
2022-08-26T12:28:24.724Z,36.11
2022-08-26T12:30:50.901Z,36.01
2022-08-26T12:33:22.665Z,35.76
2022-08-26T12:35:51.559Z,37.54
2022-08-26T12:38:21.105Z,35.97
2022-08-26T12:40:47.266Z,35.46
2022-08-26T12:43:13.452Z,36.67
2022-08-26T12:45:39.639Z,37.59
2022-08-26T12:50:59.135Z,35.61
2022-08-26T12:53:25.294Z,37.99
2022-08-26T12:55:51.452Z,36.68
2022-08-26T12:58:17.651Z,38.15
2022-08-26T13:00:43.923Z,38.39
2022-08-26T13:03:10.298Z,36.86
2022-08-26T13:05:36.623Z,36.89
2022-08-26T13:08:02.801Z,37.21
2022-08-26T13:10:31.070Z,36.62
2022-08-26T13:12:57.335Z,37.85
2022-08-26T13:15:23.501Z,38.13
2022-08-26T13:17:49.698Z,36.30
2022-08-26T13:20:15.858Z,36.14
2022-08-26T13:25:13.147Z,35.61
2022-08-26T13:27:39.360Z,33.67
2022-08-26T13:30:05.533Z,34.81
2022-08-26T13:32:33.322Z,35.24
2022-08-26T13:34:59.719Z,36.29
2022-08-26T13:37:34.474Z,36.13
2022-08-26T13:40:01.591Z,36.06
2022-08-26T13:42:27.806Z,34.06
2022-08-26T13:44:53.965Z,34.74
2022-08-26T13:47:20.155Z,35.37
2022-08-26T13:49:46.341Z,35.42
2022-08-26T13:52:12.506Z,34.97
2022-08-26T13:54:38.689Z,36.67
2022-08-26T13:57:04.880Z,34.42
2022-08-26T13:59:31.058Z,35.71
2022-08-26T14:01:57.226Z,35.04
2022-08-26T14:04:27.063Z,35.64
2022-08-26T14:06:53.613Z,35.90
2022-08-26T14:09:19.815Z,36.85
2022-08-26T14:11:50.845Z,34.09
2022-08-26T14:14:20.867Z,35.44
2022-08-26T14:16:58.928Z,37.57
2022-08-26T14:19:26.436Z,39.19
2022-08-26T14:21:52.647Z,37.65
2022-08-26T14:24:18.793Z,35.27
2022-08-26T14:26:44.941Z,33.23
2022-08-26T14:29:14.627Z,34.80
2022-08-26T14:31:42.801Z,34.02
2022-08-26T14:34:08.998Z,35.13
2022-08-26T14:36:35.193Z,35.19
2022-08-26T14:39:01.377Z,33.83
2022-08-26T14:41:27.556Z,32.54
2022-08-26T14:43:53.731Z,33.59
2022-08-26T14:46:19.936Z,31.92
2022-08-26T14:48:46.139Z,34.21
2022-08-26T14:51:12.357Z,31.98
2022-08-26T14:53:38.521Z,32.44
2022-08-26T14:56:04.714Z,32.70
2022-08-26T14:58:34.951Z,34.12
2022-08-26T15:01:04.176Z,35.92
2022-08-26T15:03:30.630Z,35.71
2022-08-26T15:05:56.801Z,35.31
2022-08-26T15:08:23.016Z,37.45
2022-08-26T15:10:49.185Z,36.58
2022-08-26T15:13:15.343Z,36.87
2022-08-26T15:15:41.555Z,38.06
2022-08-26T15:18:07.920Z,41.71
2022-08-26T15:20:34.221Z,42.96
2022-08-26T15:23:03.795Z,43.02
2022-08-26T15:25:32.463Z,44.71
2022-08-26T15:27:58.646Z,45.67
2022-08-26T15:30:24.800Z,44.58
2022-08-26T15:32:50.963Z,43.17
2022-08-26T15:35:17.143Z,44.03
2022-08-26T15:37:43.354Z,44.50
2022-08-26T15:40:09.594Z,48.03
2022-08-26T15:42:35.795Z,47.98
2022-08-26T15:45:02.021Z,48.62
2022-08-26T15:47:28.225Z,50.36
2022-08-26T15:49:54.729Z,50.95
2022-08-26T15:52:20.882Z,53.49
2022-08-26T15:54:47.048Z,58.15
2022-08-26T15:57:15.308Z,58.68
2022-08-26T15:59:42.655Z,61.52
2022-08-26T16:02:08.875Z,63.05
2022-08-26T16:04:35.074Z,63.31
2022-08-26T16:07:01.262Z,64.02
2022-08-26T16:09:27.452Z,63.16
2022-08-26T16:11:53.638Z,65.12
2022-08-26T16:14:19.805Z,67.98
2022-08-26T16:16:45.958Z,65.83
2022-08-26T16:19:12.102Z,64.64
2022-08-26T16:21:38.302Z,61.45
2022-08-26T16:24:04.476Z,57.42
2022-08-26T16:26:30.637Z,57.43
2022-08-26T16:28:56.818Z,56.11
2022-08-26T16:31:23.009Z,56.43
2022-08-26T16:33:49.254Z,56.74
2022-08-26T16:36:15.400Z,57.34
2022-08-26T16:38:41.556Z,57.82
2022-08-26T16:41:07.742Z,57.99
2022-08-26T16:43:33.912Z,56.94
2022-08-26T16:46:00.127Z,57.90
2022-08-26T16:48:27.526Z,59.29
2022-08-26T16:50:53.685Z,60.49
2022-08-26T16:53:19.866Z,61.13
2022-08-26T16:55:46.049Z,62.57
2022-08-26T16:58:12.478Z,63.32
2022-08-26T17:00:38.687Z,64.72
2022-08-26T17:03:04.927Z,65.44
2022-08-26T17:05:31.081Z,66.80
2022-08-26T17:07:57.261Z,67.03
2022-08-26T17:10:23.439Z,68.03
2022-08-26T17:12:49.608Z,67.80
2022-08-26T17:15:15.767Z,68.27
2022-08-26T17:17:41.952Z,68.37
2022-08-26T17:20:08.102Z,69.81
2022-08-26T17:22:34.800Z,70.44
2022-08-26T17:25:01.033Z,71.80
2022-08-26T17:27:27.189Z,70.91
2022-08-26T17:29:53.348Z,71.37
2022-08-26T17:32:19.545Z,70.60
2022-08-26T17:34:45.707Z,68.36
2022-08-26T17:37:11.872Z,68.61
2022-08-26T17:39:38.051Z,68.24
2022-08-26T17:42:04.211Z,68.42
2022-08-26T17:44:30.390Z,68.48
2022-08-26T17:46:56.565Z,68.42
2022-08-26T17:49:22.763Z,68.93
2022-08-26T17:51:48.971Z,69.09
2022-08-26T17:54:15.199Z,69.26
2022-08-26T17:56:41.356Z,69.68
2022-08-26T17:59:07.628Z,69.38
2022-08-26T18:01:33.872Z,70.28
2022-08-26T18:04:00.952Z,70.43
2022-08-26T18:06:27.455Z,70.29
2022-08-26T18:08:53.605Z,70.73
2022-08-26T18:11:22.368Z,71.24
2022-08-26T18:13:48.543Z,71.59
2022-08-26T18:16:14.748Z,71.81
2022-08-26T18:18:40.949Z,71.48
2022-08-26T18:21:07.172Z,71.78
2022-08-26T18:23:33.359Z,72.01
2022-08-26T18:25:59.507Z,71.88
2022-08-26T18:28:25.709Z,71.99
2022-08-26T18:30:51.921Z,71.95
2022-08-26T18:33:18.111Z,72.51
2022-08-26T18:35:44.321Z,72.79
2022-08-26T18:38:11.705Z,72.85
2022-08-26T18:40:38.136Z,73.44
2022-08-26T18:43:04.323Z,73.39
2022-08-26T18:45:30.503Z,73.83
2022-08-26T18:47:56.667Z,74.20
2022-08-26T18:50:22.876Z,74.23
2022-08-26T18:52:49.032Z,74.00
2022-08-26T18:55:15.186Z,73.88
2022-08-26T18:57:41.384Z,74.62
2022-08-26T19:00:07.539Z,74.46
2022-08-26T19:02:33.767Z,75.09
2022-08-26T19:05:00.014Z,75.37
2022-08-26T19:07:26.286Z,75.51
2022-08-26T19:09:53.845Z,76.07
2022-08-26T19:12:20.360Z,76.99
2022-08-26T19:14:46.552Z,77.18
2022-08-26T19:17:12.856Z,76.92
2022-08-26T19:19:39.078Z,76.89
2022-08-26T19:22:05.302Z,76.66
2022-08-26T19:24:33.767Z,76.36
2022-08-26T19:26:59.921Z,77.94
2022-08-26T19:29:26.123Z,77.59
2022-08-26T19:31:52.354Z,77.40
2022-08-26T19:34:20.835Z,77.43
2022-08-26T19:36:47.263Z,77.93
2022-08-26T19:39:13.421Z,78.22
2022-08-26T19:41:39.635Z,77.79
2022-08-26T19:44:05.810Z,79.56
2022-08-26T19:46:32.149Z,79.02
2022-08-26T19:48:58.457Z,78.69
2022-08-26T19:51:24.636Z,79.07
2022-08-26T19:53:50.823Z,79.59
2022-08-26T19:56:17.006Z,78.97
2022-08-26T19:58:43.167Z,79.76
2022-08-26T20:01:09.424Z,79.95
2022-08-26T20:03:35.633Z,80.00
2022-08-26T20:06:01.814Z,80.84
2022-08-26T20:08:27.994Z,80.36
2022-08-26T20:10:55.918Z,80.34
2022-08-26T20:13:22.080Z,80.83
2022-08-26T20:15:49.399Z,81.43
2022-08-26T20:18:15.600Z,81.91
2022-08-26T20:20:44.804Z,81.99
2022-08-26T20:23:10.993Z,82.47
2022-08-26T20:25:37.172Z,83.02
2022-08-26T20:28:03.379Z,83.95
2022-08-26T20:30:29.577Z,83.31
2022-08-26T20:32:55.767Z,83.65
2022-08-26T20:35:21.920Z,83.63
2022-08-26T20:37:48.125Z,84.35
2022-08-26T20:40:14.361Z,85.76
2022-08-26T20:42:40.572Z,88.17
2022-08-26T20:45:06.714Z,89.05
2022-08-26T20:47:32.887Z,88.21
2022-08-26T20:49:59.092Z,89.05
2022-08-26T20:52:25.274Z,88.72
2022-08-26T20:54:51.486Z,87.91
2022-08-26T20:57:17.663Z,87.63
2022-08-26T20:59:43.860Z,88.32
2022-08-26T21:02:10.071Z,87.06
2022-08-26T21:04:36.272Z,86.99
2022-08-26T21:07:02.509Z,86.93
2022-08-26T21:09:29.086Z,86.85
2022-08-26T21:11:56.931Z,87.16
2022-08-26T21:14:23.111Z,87.39
2022-08-26T21:16:52.245Z,87.47
2022-08-26T21:19:18.424Z,88.28
2022-08-26T21:21:44.611Z,87.61
2022-08-26T21:24:10.781Z,87.35
2022-08-26T21:26:36.961Z,87.34
2022-08-26T21:29:03.161Z,86.80
2022-08-26T21:31:29.349Z,88.02
2022-08-26T21:33:55.569Z,88.24
2022-08-26T21:36:21.810Z,88.21
2022-08-26T21:38:47.994Z,87.64
2022-08-26T21:41:14.125Z,87.29
2022-08-26T21:43:40.294Z,87.44
2022-08-26T21:46:06.568Z,87.56
2022-08-26T21:48:34.529Z,87.18
2022-08-26T21:51:00.926Z,87.16
2022-08-26T21:53:27.078Z,87.42
2022-08-26T21:55:53.280Z,88.09
2022-08-26T21:58:19.443Z,88.44
2022-08-26T22:00:45.654Z,87.75
2022-08-26T22:03:11.847Z,89.02
2022-08-26T22:05:38.008Z,89.20
2022-08-26T22:08:04.164Z,92.21
2022-08-26T22:10:30.353Z,95.23
2022-08-26T22:12:56.533Z,97.34
2022-08-26T22:15:22.697Z,100.00
2022-08-26T22:17:48.856Z,100.00
2022-08-26T22:20:16.609Z,100.00
2022-08-26T22:22:43.031Z,100.00
2022-08-26T22:25:09.294Z,100.00
2022-08-26T22:27:35.460Z,100.00
2022-08-26T22:30:08.960Z,100.00
2022-08-26T22:32:37.922Z,100.00
2022-08-26T22:35:04.117Z,100.00
2022-08-26T22:37:50.248Z,100.00
2022-08-26T22:40:16.475Z,100.00
2022-08-26T22:42:42.677Z,100.00
2022-08-26T22:45:21.713Z,100.00
2022-08-26T22:47:47.972Z,100.00
2022-08-26T22:50:14.182Z,100.00
2022-08-26T22:52:40.351Z,100.00
2022-08-26T22:55:06.521Z,100.00
2022-08-26T22:57:32.704Z,100.00
2022-08-26T22:59:58.859Z,100.00
2022-08-26T23:02:25.014Z,100.00
2022-08-26T23:04:51.194Z,100.00
2022-08-26T23:07:17.384Z,100.00
2022-08-26T23:09:43.565Z,100.00
2022-08-26T23:12:09.732Z,100.00
2022-08-26T23:14:35.913Z,100.00
2022-08-26T23:17:02.145Z,100.00
2022-08-26T23:19:28.332Z,100.00
2022-08-26T23:21:54.500Z,100.00
2022-08-26T23:24:20.690Z,100.00
2022-08-26T23:26:46.845Z,100.00
2022-08-26T23:29:13.014Z,100.00
2022-08-26T23:31:39.248Z,100.00
2022-08-26T23:34:05.488Z,100.00
2022-08-26T23:36:31.672Z,100.00
2022-08-26T23:39:01.192Z,100.00
2022-08-26T23:41:27.410Z,100.00
2022-08-26T23:43:53.596Z,100.00
2022-08-26T23:46:19.760Z,100.00
2022-08-26T23:48:45.950Z,100.00
2022-08-26T23:51:12.130Z,100.00
2022-08-26T23:53:38.296Z,100.00
2022-08-26T23:56:04.453Z,100.00
2022-08-26T23:58:30.671Z,100.00
